createdAt,value
2023-01-18T00:01:09.967Z,11.03
2023-01-18T00:03:39.642Z,9.90
2023-01-18T00:06:10.381Z,8.07
2023-01-18T00:08:40.104Z,11.43
2023-01-18T00:11:10.310Z,7.70
2023-01-18T00:13:38.603Z,8.73
2023-01-18T00:16:09.982Z,9.17
2023-01-18T00:18:38.137Z,11.43
2023-01-18T00:21:08.286Z,11.77
2023-01-18T00:23:36.812Z,8.20
2023-01-18T00:26:07.350Z,8.87
2023-01-18T00:28:35.634Z,10.23
2023-01-18T00:31:12.386Z,13.60
2023-01-18T00:33:43.049Z,12.77
2023-01-18T00:36:11.507Z,9.40
2023-01-18T00:38:39.566Z,9.30
2023-01-18T00:41:07.836Z,10.23
2023-01-18T00:43:41.087Z,9.77
2023-01-18T00:46:12.087Z,8.83
2023-01-18T00:48:41.373Z,12.80
2023-01-18T00:51:10.241Z,11.37
2023-01-18T00:53:39.118Z,9.40
2023-01-18T00:56:08.811Z,9.33
2023-01-18T00:58:37.520Z,13.67
2023-01-18T01:01:06.703Z,8.47
2023-01-18T01:03:50.498Z,10.77
2023-01-18T01:06:38.220Z,10.63
2023-01-18T01:09:06.242Z,8.90
2023-01-18T01:11:34.264Z,13.03
2023-01-18T01:14:19.590Z,10.87
2023-01-18T01:17:04.942Z,11.47
2023-01-18T01:19:51.971Z,12.83
2023-01-18T01:22:37.746Z,9.60
2023-01-18T01:25:24.093Z,13.57
2023-01-18T01:27:53.485Z,10.33
2023-01-18T01:30:21.510Z,11.43
2023-01-18T01:32:49.546Z,11.90
2023-01-18T01:35:19.016Z,13.37
2023-01-18T01:37:47.055Z,11.27
2023-01-18T01:40:15.145Z,10.10
2023-01-18T01:42:43.170Z,11.43
2023-01-18T01:45:11.883Z,10.03
2023-01-18T01:47:42.563Z,11.80
2023-01-18T01:50:18.623Z,10.73
2023-01-18T01:52:48.797Z,10.07
2023-01-18T01:55:22.761Z,11.63
2023-01-18T01:57:56.155Z,15.13
2023-01-18T02:00:25.502Z,13.27
2023-01-18T02:02:56.217Z,11.63
2023-01-18T02:05:25.236Z,11.17
2023-01-18T02:07:55.445Z,12.93
2023-01-18T02:10:23.620Z,13.57
2023-01-18T02:12:54.699Z,13.50
2023-01-18T02:15:24.072Z,16.13
2023-01-18T02:18:12.959Z,11.80
2023-01-18T02:21:17.735Z,13.77
2023-01-18T02:24:37.633Z,15.27
2023-01-18T02:27:10.409Z,14.37
2023-01-18T02:30:11.752Z,13.70
2023-01-18T02:32:56.814Z,12.87
2023-01-18T02:35:35.014Z,14.60
2023-01-18T02:38:10.465Z,14.17
2023-01-18T02:40:50.189Z,16.80
2023-01-18T02:43:39.390Z,13.77
2023-01-18T02:46:34.106Z,12.13
2023-01-18T02:49:06.099Z,12.40
2023-01-18T02:51:34.345Z,16.33
2023-01-18T02:54:04.050Z,15.40
2023-01-18T02:56:36.082Z,13.00
2023-01-18T02:59:08.700Z,14.70
2023-01-18T03:01:42.428Z,14.93
2023-01-18T03:04:15.366Z,14.43
2023-01-18T03:06:48.190Z,15.67
2023-01-18T03:09:18.719Z,15.60
2023-01-18T03:11:57.628Z,13.83
2023-01-18T03:14:38.326Z,15.50
2023-01-18T03:17:17.338Z,15.37
2023-01-18T03:20:06.545Z,14.03
2023-01-18T03:22:56.835Z,15.17
2023-01-18T03:25:29.015Z,16.30
2023-01-18T03:28:17.704Z,18.67
2023-01-18T03:31:05.553Z,13.83
2023-01-18T03:33:47.041Z,15.67
2023-01-18T03:36:21.556Z,16.70
2023-01-18T03:38:54.349Z,17.13
2023-01-18T03:41:25.471Z,14.57
2023-01-18T03:43:58.146Z,16.03
2023-01-18T03:46:29.931Z,14.40
2023-01-18T03:48:59.753Z,15.73
2023-01-18T03:51:39.242Z,15.67
2023-01-18T03:54:15.307Z,15.40
2023-01-18T03:56:49.679Z,19.57
2023-01-18T03:59:18.070Z,19.13
2023-01-18T04:01:48.249Z,15.70
2023-01-18T04:04:17.696Z,16.20
2023-01-18T04:06:45.839Z,17.80
2023-01-18T04:09:13.914Z,16.83
2023-01-18T04:11:41.987Z,16.53
2023-01-18T04:14:10.127Z,17.40
2023-01-18T04:16:38.170Z,17.30
2023-01-18T04:19:07.429Z,18.07
2023-01-18T04:21:38.478Z,20.70
2023-01-18T04:24:07.195Z,16.47
2023-01-18T04:26:35.287Z,16.47
2023-01-18T04:29:03.539Z,16.57
2023-01-18T04:31:31.646Z,18.13
2023-01-18T04:33:59.724Z,18.83
2023-01-18T04:36:28.951Z,19.10
2023-01-18T04:38:58.357Z,16.63
2023-01-18T04:41:26.416Z,15.70
2023-01-18T04:43:54.450Z,18.03
2023-01-18T04:46:22.539Z,18.27
2023-01-18T04:48:52.436Z,17.07
2023-01-18T04:51:20.982Z,18.57
2023-01-18T04:53:49.100Z,16.90
2023-01-18T04:56:18.854Z,20.00
2023-01-18T04:58:47.340Z,19.27
2023-01-18T05:01:17.029Z,16.93
2023-01-18T05:03:45.487Z,19.97
2023-01-18T05:06:15.471Z,16.07
2023-01-18T05:08:44.088Z,22.10
2023-01-18T05:11:13.964Z,17.17
2023-01-18T05:13:44.220Z,17.43
2023-01-18T05:16:16.306Z,18.27
2023-01-18T05:18:44.876Z,17.87
2023-01-18T05:21:12.959Z,21.23
2023-01-18T05:23:41.407Z,19.77
2023-01-18T05:26:15.335Z,20.87
2023-01-18T05:28:45.905Z,17.57
2023-01-18T05:31:14.593Z,19.10
2023-01-18T05:33:42.965Z,16.77
2023-01-18T05:36:11.715Z,17.40
2023-01-18T05:38:39.743Z,18.70
2023-01-18T05:41:07.873Z,18.00
2023-01-18T05:43:36.254Z,19.90
2023-01-18T05:46:06.139Z,17.00
2023-01-18T05:48:34.288Z,21.33
2023-01-18T05:51:07.777Z,18.53
2023-01-18T05:53:36.181Z,19.13
2023-01-18T05:56:06.238Z,17.47
2023-01-18T05:58:34.686Z,18.87
2023-01-18T06:01:02.842Z,18.83
2023-01-18T06:03:32.238Z,18.23
2023-01-18T06:06:00.267Z,19.57
2023-01-18T06:08:28.680Z,22.87
2023-01-18T06:10:58.174Z,20.00
2023-01-18T06:13:28.013Z,18.67
2023-01-18T06:15:56.781Z,18.60
2023-01-18T06:18:25.825Z,18.97
2023-01-18T06:20:56.041Z,23.73
2023-01-18T06:23:24.140Z,19.37
2023-01-18T06:25:52.833Z,20.83
2023-01-18T06:28:22.570Z,19.57
2023-01-18T06:30:52.991Z,18.90
2023-01-18T06:33:21.123Z,19.53
2023-01-18T06:35:49.144Z,19.80
2023-01-18T06:38:18.841Z,19.17
2023-01-18T06:40:46.928Z,24.07
2023-01-18T06:43:16.041Z,22.13
2023-01-18T06:45:44.153Z,20.53
2023-01-18T06:48:12.278Z,23.03
2023-01-18T06:50:40.309Z,23.07
2023-01-18T06:53:08.339Z,20.60
2023-01-18T06:55:37.705Z,23.33
2023-01-18T06:58:05.843Z,22.33
2023-01-18T07:00:34.253Z,20.83
2023-01-18T07:03:02.354Z,23.07
2023-01-18T07:05:31.016Z,20.87
2023-01-18T07:07:59.004Z,22.20
2023-01-18T07:10:27.172Z,21.37
2023-01-18T07:12:56.884Z,21.70
2023-01-18T07:15:25.064Z,23.23
2023-01-18T07:17:53.115Z,25.97
2023-01-18T07:20:21.188Z,22.67
2023-01-18T07:22:52.774Z,23.90
2023-01-18T07:25:21.027Z,26.00
2023-01-18T07:27:49.970Z,23.87
2023-01-18T07:30:20.333Z,22.97
2023-01-18T07:32:50.340Z,22.43
2023-01-18T07:35:20.131Z,22.60
2023-01-18T07:37:50.517Z,22.50
2023-01-18T07:40:20.899Z,24.03
2023-01-18T07:42:49.416Z,23.13
2023-01-18T07:45:18.947Z,21.47
2023-01-18T07:47:47.235Z,23.80
2023-01-18T07:50:16.106Z,22.87
2023-01-18T07:52:44.174Z,26.17
2023-01-18T07:55:12.248Z,24.27
2023-01-18T07:57:40.304Z,24.50
2023-01-18T08:00:10.813Z,22.50
2023-01-18T08:02:43.367Z,25.17
2023-01-18T08:05:11.709Z,27.93
2023-01-18T08:07:40.029Z,23.93
2023-01-18T08:10:08.505Z,26.00
2023-01-18T08:12:36.653Z,25.73
2023-01-18T08:15:05.648Z,24.13
2023-01-18T08:17:47.426Z,26.20
2023-01-18T08:20:16.056Z,24.57
2023-01-18T08:22:44.120Z,22.60
2023-01-18T08:25:12.260Z,23.87
2023-01-18T08:27:40.378Z,25.03
2023-01-18T08:30:10.164Z,23.37
2023-01-18T08:32:38.243Z,22.50
2023-01-18T08:35:08.902Z,20.13
2023-01-18T08:37:36.965Z,22.20
2023-01-18T08:40:05.736Z,22.00
2023-01-18T08:42:33.765Z,23.23
2023-01-18T08:45:01.820Z,20.20
2023-01-18T08:47:29.963Z,23.77
2023-01-18T08:49:59.108Z,23.60
2023-01-18T08:52:54.959Z,24.90
2023-01-18T08:55:23.824Z,23.10
2023-01-18T08:57:55.153Z,23.20
2023-01-18T09:00:26.759Z,20.37
2023-01-18T09:02:55.465Z,24.97
2023-01-18T09:05:24.750Z,29.23
2023-01-18T09:07:56.049Z,24.13
2023-01-18T09:10:24.502Z,22.23
2023-01-18T09:12:53.747Z,23.23
2023-01-18T09:15:22.046Z,25.57
2023-01-18T09:17:50.134Z,25.57
2023-01-18T09:20:19.121Z,23.70
2023-01-18T09:22:48.745Z,21.37
2023-01-18T09:25:18.914Z,24.40
2023-01-18T09:27:47.644Z,23.77
2023-01-18T09:30:17.116Z,23.47
2023-01-18T09:32:45.188Z,23.83
2023-01-18T09:35:18.006Z,21.80
2023-01-18T09:37:46.425Z,20.60
2023-01-18T09:40:22.781Z,22.63
2023-01-18T09:42:52.800Z,19.33
2023-01-18T09:45:29.923Z,21.80
2023-01-18T09:48:03.023Z,21.07
2023-01-18T09:50:32.958Z,18.97
2023-01-18T09:53:11.261Z,17.97
2023-01-18T09:55:51.751Z,18.60
2023-01-18T09:58:37.853Z,22.80
2023-01-18T10:01:09.515Z,21.20
2023-01-18T10:03:48.753Z,17.53
2023-01-18T10:06:21.607Z,17.70
2023-01-18T10:08:55.801Z,16.23
2023-01-18T10:11:31.436Z,16.83
2023-01-18T10:14:09.224Z,18.87
2023-01-18T10:16:38.848Z,16.67
2023-01-18T10:19:16.347Z,15.40
2023-01-18T10:21:53.883Z,16.63
2023-01-18T10:24:32.735Z,16.98
2023-01-18T10:27:14.361Z,14.98
2023-01-18T10:29:58.491Z,16.20
2023-01-18T10:32:28.319Z,15.10
2023-01-18T10:34:56.390Z,16.77
2023-01-18T10:37:33.479Z,17.85
2023-01-18T10:40:03.215Z,17.33
2023-01-18T10:42:40.938Z,17.85
2023-01-18T10:45:17.453Z,18.98
2023-01-18T10:47:45.545Z,14.35
2023-01-18T10:50:15.091Z,16.88
2023-01-18T10:52:43.131Z,17.02
2023-01-18T10:55:16.319Z,16.13
2023-01-18T10:57:50.036Z,16.05
2023-01-18T11:00:23.764Z,16.52
2023-01-18T11:02:54.159Z,15.55
2023-01-18T11:05:28.903Z,16.08
2023-01-18T11:08:14.556Z,15.60
2023-01-18T11:10:43.844Z,15.00
2023-01-18T11:13:27.235Z,14.70
2023-01-18T11:16:06.102Z,13.85
2023-01-18T11:18:34.214Z,15.15
2023-01-18T11:21:02.936Z,18.35
2023-01-18T11:23:35.699Z,13.70
2023-01-18T11:26:09.231Z,12.70
2023-01-18T11:28:45.782Z,14.60
2023-01-18T11:31:15.511Z,15.02
2023-01-18T11:33:51.768Z,14.38
2023-01-18T11:36:21.246Z,16.13
2023-01-18T11:38:49.705Z,16.30
2023-01-18T11:41:20.722Z,15.05
2023-01-18T11:44:01.056Z,16.10
2023-01-18T11:46:40.191Z,11.57
2023-01-18T11:49:17.496Z,13.02
2023-01-18T11:51:51.187Z,12.65
2023-01-18T11:54:29.041Z,12.77
2023-01-18T11:57:02.335Z,12.63
2023-01-18T11:59:34.885Z,11.98
2023-01-18T12:02:39.922Z,12.70
2023-01-18T12:05:37.868Z,14.18
2023-01-18T12:08:29.453Z,11.48
2023-01-18T12:11:17.776Z,12.48
2023-01-18T12:13:59.428Z,12.95
2023-01-18T12:16:49.073Z,12.07
2023-01-18T12:19:34.528Z,14.57
2023-01-18T12:22:26.787Z,14.75
2023-01-18T12:25:06.675Z,12.70
2023-01-18T12:27:43.670Z,10.73
2023-01-18T12:30:29.160Z,11.48
2023-01-18T12:33:13.139Z,14.35
2023-01-18T12:36:07.425Z,10.52
2023-01-18T12:38:36.857Z,9.88
2023-01-18T12:41:34.546Z,13.25
2023-01-18T12:45:00.880Z,15.05
2023-01-18T12:47:36.113Z,11.60
2023-01-18T12:50:13.908Z,14.73
2023-01-18T12:52:47.287Z,11.77
2023-01-18T12:55:21.374Z,10.88
2023-01-18T12:57:52.636Z,13.02
2023-01-18T13:00:26.073Z,12.60
2023-01-18T13:02:57.739Z,13.63
2023-01-18T13:05:35.318Z,13.25
2023-01-18T13:08:09.183Z,15.07
2023-01-18T13:10:38.573Z,13.27
2023-01-18T13:13:07.522Z,13.63
2023-01-18T13:15:43.480Z,11.88
2023-01-18T13:18:17.915Z,12.27
2023-01-18T13:20:58.618Z,11.13
2023-01-18T13:23:37.865Z,15.70
2023-01-18T13:26:17.861Z,11.80
2023-01-18T13:28:46.377Z,13.80
2023-01-18T13:31:14.944Z,15.35
2023-01-18T13:33:45.590Z,15.38
2023-01-18T13:36:19.761Z,12.05
2023-01-18T13:38:53.031Z,11.85
2023-01-18T13:41:24.759Z,13.10
2023-01-18T13:44:05.000Z,10.40
2023-01-18T13:46:36.504Z,13.60
2023-01-18T13:49:36.586Z,15.40
2023-01-18T13:52:30.424Z,12.38
2023-01-18T13:55:04.151Z,12.88
2023-01-18T13:57:34.629Z,13.82
2023-01-18T14:00:03.456Z,12.13
2023-01-18T14:02:41.988Z,13.48
2023-01-18T14:05:25.328Z,10.75
2023-01-18T14:08:00.143Z,13.38
2023-01-18T14:10:31.815Z,11.90
2023-01-18T14:13:02.769Z,11.95
2023-01-18T14:15:47.611Z,11.85
2023-01-18T14:18:21.763Z,12.73
2023-01-18T14:21:22.251Z,14.77
2023-01-18T14:24:15.054Z,13.05
2023-01-18T14:26:44.711Z,15.85
2023-01-18T14:29:17.475Z,12.93
2023-01-18T14:31:49.841Z,12.93
2023-01-18T14:34:37.997Z,12.18
2023-01-18T14:37:26.261Z,11.77
2023-01-18T14:40:07.965Z,13.20
2023-01-18T14:42:39.642Z,11.82
2023-01-18T14:45:08.947Z,13.50
2023-01-18T14:47:39.274Z,12.40
2023-01-18T14:50:17.327Z,12.23
2023-01-18T14:52:45.463Z,16.00
2023-01-18T14:55:27.576Z,14.20
2023-01-18T14:58:12.342Z,14.90
2023-01-18T15:00:47.645Z,15.97
2023-01-18T15:03:23.811Z,13.80
2023-01-18T15:05:58.589Z,16.60
2023-01-18T15:08:28.595Z,13.73
2023-01-18T15:10:59.258Z,13.13
2023-01-18T15:13:30.607Z,14.10
2023-01-18T15:16:01.347Z,13.70
2023-01-18T15:18:30.923Z,18.23
2023-01-18T15:21:01.974Z,14.20
2023-01-18T15:23:31.275Z,13.77
2023-01-18T15:26:00.831Z,15.67
2023-01-18T15:28:33.872Z,11.67
2023-01-18T15:31:07.541Z,13.63
2023-01-18T15:33:39.510Z,13.27
2023-01-18T15:36:09.757Z,12.40
2023-01-18T15:38:38.233Z,10.87
2023-01-18T15:41:11.304Z,12.50
2023-01-18T15:43:43.427Z,13.50
2023-01-18T15:46:14.144Z,15.67
2023-01-18T15:48:58.333Z,12.60
2023-01-18T15:51:41.781Z,13.77
2023-01-18T15:54:19.017Z,10.17
2023-01-18T15:56:54.763Z,11.93
2023-01-18T15:59:34.191Z,12.17
2023-01-18T16:02:16.827Z,15.00
2023-01-18T16:04:45.496Z,13.67
2023-01-18T16:07:36.948Z,15.73
2023-01-18T16:10:28.109Z,13.53
2023-01-18T16:13:34.732Z,13.40
2023-01-18T16:16:22.121Z,16.97
2023-01-18T16:19:04.221Z,15.50
2023-01-18T16:21:41.629Z,16.67
2023-01-18T16:24:28.273Z,17.13
2023-01-18T16:26:58.058Z,14.20
2023-01-18T16:29:27.903Z,15.33
2023-01-18T16:32:33.921Z,13.40
2023-01-18T16:35:06.103Z,14.03
2023-01-18T16:37:34.197Z,15.37
2023-01-18T16:40:02.393Z,16.23
2023-01-18T16:42:38.024Z,12.77
2023-01-18T16:45:15.023Z,14.40
2023-01-18T16:47:44.285Z,14.53
2023-01-18T16:50:15.591Z,15.37
2023-01-18T16:52:43.749Z,14.57
2023-01-18T16:55:13.641Z,15.47
2023-01-18T16:57:42.278Z,13.90
2023-01-18T17:00:18.054Z,12.57
2023-01-18T17:02:46.664Z,14.50
2023-01-18T17:05:20.914Z,14.97
2023-01-18T17:07:50.789Z,13.03
2023-01-18T17:10:32.324Z,13.63
2023-01-18T17:13:01.126Z,15.13
2023-01-18T17:15:33.310Z,12.63
2023-01-18T17:18:02.165Z,15.73
2023-01-18T17:20:32.242Z,19.47
2023-01-18T17:23:01.751Z,13.57
2023-01-18T17:25:30.124Z,15.43
2023-01-18T17:27:59.297Z,14.50
2023-01-18T17:30:27.970Z,17.80
2023-01-18T17:32:57.803Z,15.67
2023-01-18T17:35:27.745Z,16.20
2023-01-18T17:38:01.087Z,15.97
2023-01-18T17:40:40.905Z,13.87
2023-01-18T17:43:15.206Z,14.37
2023-01-18T17:45:51.285Z,15.23
2023-01-18T17:48:30.220Z,16.00
2023-01-18T17:50:58.769Z,13.27
2023-01-18T17:53:27.093Z,11.53
2023-01-18T17:55:55.575Z,11.10
2023-01-18T17:58:23.933Z,13.80
2023-01-18T18:00:52.210Z,15.13
2023-01-18T18:03:20.705Z,15.33
2023-01-18T18:05:50.436Z,13.77
2023-01-18T18:08:19.073Z,17.77
2023-01-18T18:10:47.751Z,16.57
2023-01-18T18:13:16.091Z,13.63
2023-01-18T18:15:46.763Z,17.37
2023-01-18T18:18:23.273Z,14.53
2023-01-18T18:20:58.279Z,16.93
2023-01-18T18:23:27.038Z,15.30
2023-01-18T18:25:55.846Z,14.90
2023-01-18T18:28:24.458Z,13.80
2023-01-18T18:30:53.088Z,16.53
2023-01-18T18:33:22.012Z,15.60
2023-01-18T18:35:51.062Z,14.23
2023-01-18T18:38:23.089Z,14.90
2023-01-18T18:40:52.072Z,15.40
2023-01-18T18:43:20.684Z,16.47
2023-01-18T18:45:48.903Z,16.90
2023-01-18T18:48:16.968Z,18.40
2023-01-18T18:50:46.673Z,18.03
2023-01-18T18:53:14.809Z,20.60
2023-01-18T18:55:44.593Z,13.77
2023-01-18T18:58:12.700Z,17.77
2023-01-18T19:00:40.782Z,15.50
2023-01-18T19:03:09.227Z,16.33
2023-01-18T19:05:37.736Z,16.97
2023-01-18T19:08:06.239Z,16.50
2023-01-18T19:10:34.343Z,12.70
2023-01-18T19:13:04.917Z,16.63
2023-01-18T19:15:33.100Z,19.70
2023-01-18T19:18:01.178Z,18.73
2023-01-18T19:20:29.549Z,18.57
2023-01-18T19:22:58.310Z,15.30
2023-01-18T19:25:26.695Z,17.40
2023-01-18T19:27:54.881Z,18.40
2023-01-18T19:30:24.661Z,18.30
2023-01-18T19:32:53.325Z,17.70
2023-01-18T19:35:21.866Z,18.50
2023-01-18T19:37:50.215Z,18.43
2023-01-18T19:40:18.759Z,16.30
2023-01-18T19:42:56.042Z,16.50
2023-01-18T19:45:28.995Z,18.33
2023-01-18T19:47:58.520Z,24.20
2023-01-18T19:50:27.574Z,18.07
2023-01-18T19:52:55.993Z,18.97
2023-01-18T19:55:25.137Z,24.00
2023-01-18T19:57:56.391Z,17.10
2023-01-18T20:00:25.925Z,19.20
2023-01-18T20:02:54.476Z,18.63
2023-01-18T20:05:22.603Z,16.60
2023-01-18T20:07:51.260Z,20.07
2023-01-18T20:10:20.372Z,23.00
2023-01-18T20:12:49.137Z,19.13
2023-01-18T20:15:18.975Z,20.33
2023-01-18T20:17:48.465Z,19.60
2023-01-18T20:20:24.150Z,19.67
2023-01-18T20:22:59.527Z,19.27
2023-01-18T20:25:27.723Z,17.30
2023-01-18T20:27:55.814Z,3.70
2023-01-18T20:30:23.852Z,0.43
2023-01-18T20:32:53.243Z,2.33
2023-01-18T20:35:21.321Z,0.63
2023-01-18T20:37:49.451Z,0.10
2023-01-18T20:40:17.939Z,0.63
2023-01-18T20:42:46.007Z,1.07
2023-01-18T20:45:14.120Z,0.10
2023-01-18T20:47:42.683Z,0.70
2023-01-18T20:50:12.953Z,1.03
2023-01-18T20:52:40.990Z,2.80
2023-01-18T20:55:12.819Z,2.30
2023-01-18T20:57:40.864Z,1.00
2023-01-18T21:00:12.554Z,0.73
2023-01-18T21:02:41.917Z,1.53
2023-01-18T21:05:10.388Z,0.20
2023-01-18T21:07:41.688Z,0.13
2023-01-18T21:10:11.764Z,0.20
2023-01-18T21:12:41.333Z,1.37
2023-01-18T21:15:10.216Z,0.43
2023-01-18T21:17:39.729Z,1.07
2023-01-18T21:20:08.888Z,0.40
2023-01-18T21:22:37.142Z,1.67
2023-01-18T21:25:07.810Z,1.13
2023-01-18T21:27:36.593Z,0.57
2023-01-18T21:30:05.331Z,1.17
2023-01-18T21:32:33.465Z,0.10
2023-01-18T21:35:01.601Z,0.87
2023-01-18T21:37:29.648Z,0.37
2023-01-18T21:39:58.303Z,0.30
2023-01-18T21:42:45.177Z,0.40
2023-01-18T21:45:31.045Z,1.00
2023-01-18T21:48:06.194Z,12.93
2023-01-18T21:50:51.480Z,0.73
2023-01-18T21:53:37.081Z,0.20
2023-01-18T21:56:05.506Z,2.00
2023-01-18T21:58:52.645Z,0.20
2023-01-18T22:01:22.435Z,0.70
2023-01-18T22:04:09.148Z,0.30
2023-01-18T22:06:37.441Z,3.03
2023-01-18T22:09:06.261Z,0.53
2023-01-18T22:11:34.430Z,0.67
2023-01-18T22:14:05.626Z,1.30
2023-01-18T22:16:34.119Z,0.60
2023-01-18T22:19:03.180Z,1.53
2023-01-18T22:21:31.224Z,0.53
2023-01-18T22:23:59.774Z,0.30
2023-01-18T22:26:29.872Z,1.30
2023-01-18T22:28:58.336Z,0.77
2023-01-18T22:31:28.624Z,0.30
2023-01-18T22:33:57.289Z,1.17
2023-01-18T22:36:25.770Z,0.40
2023-01-18T22:38:54.044Z,2.87
2023-01-18T22:41:24.296Z,0.83
2023-01-18T22:43:52.896Z,0.87
2023-01-18T22:46:22.421Z,2.30
2023-01-18T22:48:52.198Z,9.00
2023-01-18T22:51:22.568Z,1.93
2023-01-18T22:53:51.098Z,1.83
2023-01-18T22:56:22.103Z,1.63
2023-01-18T22:58:51.026Z,2.33
2023-01-18T23:01:25.017Z,1.90
2023-01-18T23:03:57.025Z,3.03
2023-01-18T23:06:25.111Z,2.13
2023-01-18T23:08:54.383Z,0.37
2023-01-18T23:11:24.324Z,1.40
2023-01-18T23:14:13.096Z,0.83
2023-01-18T23:16:59.363Z,1.40
2023-01-18T23:19:30.877Z,0.00
2023-01-18T23:21:59.276Z,0.60
2023-01-18T23:24:28.271Z,0.20
2023-01-18T23:26:56.310Z,1.90
2023-01-18T23:29:24.536Z,4.10
2023-01-18T23:31:52.599Z,1.90
2023-01-18T23:34:20.667Z,1.17
2023-01-18T23:36:51.056Z,3.33
2023-01-18T23:39:36.451Z,2.13
2023-01-18T23:42:22.138Z,0.23
2023-01-18T23:45:07.355Z,0.80
2023-01-18T23:47:53.632Z,0.30
2023-01-18T23:50:38.785Z,3.20
2023-01-18T23:53:30.222Z,2.30
2023-01-18T23:55:58.284Z,1.27
2023-01-18T23:58:26.378Z,0.20
